Terminal Aerodrome Forecast
Issued by NWS Binghamton, NY

Home | Current Version | Previous Version | Text Only | Print | Product List | Glossary On
Versions: 1 2 3 4 5 6 7 8 9 10 11 12 13 14 15 16 17 18
000
FTUS41 KBGM 020500 RRA
TAFSYR
TAF
KSYR 020542Z 0206/0306 18008KT P6SM SCT050 OVC120
      TEMPO 0208/0211 3SM -SHRA BR OVC025
     FM021100 24010KT P6SM BKN060
      TEMPO 0211/0213 OVC025
     FM022000 26010KT P6SM BKN040
      TEMPO 0220/0222 3SM TSRA BR OVC025CB
     FM022200 31010KT P6SM SCT025 BKN070
     FM030000 27005KT P6SM BKN025=

USA.gov is the U.S. government's official web portal to all federal, state and local government web resources and services.